Decoded Metar for SAZM (MAR DEL PLATA in ARGENTINA) (IATA:MDQ) | Meteo·Mobile Aviation Weather
aviador You're here:

SAZM Decoded Metar

MAR DEL PLATA in ARGENTINA
Report Time2019-03-21 16:00:00
UTC Time2019-03-22 14:44:07
Flight Rules Old
WindCalm
Visibility9999 m
Phenomena:N/A
Clouds:Broken 030 Hf
Expected CloudBase > 3,200 ft AGL from Temp-Dew spread
Ceiling3,000 ft
Temp16°C (ISA +1)
Dew Point08°C (59% RH)
AAT15.5°C
QNH1023 hPa
Density Alt13 ft
Elevation69 ft
Report Wrong Elevation
Raw Report
METAR SAZM 211600Z 00000KT 9999 BKN030 16/08 Q1023=

Extra information for SAZM:More info

Metar Taf Metar & Taf Last 4 Metars F.Rules Stats Wind Profile Meteogram Temp Stats Airport Information Weather charts Add Link Nearby VenuesMetar ALERT Operation Metar Decoded Social comments